sensor_id;sensor_type;location;lat;lon;timestamp;temperature;humidity
46438;DHT22;32137;48.728;9.142;2023-05-10T00:00:20;13.90;1.00
46438;DHT22;32137;48.728;9.142;2023-05-10T00:02:47;13.80;1.00
46438;DHT22;32137;48.728;9.142;2023-05-10T00:05:13;13.70;1.00
46438;DHT22;32137;48.728;9.142;2023-05-10T00:07:39;13.80;1.00
46438;DHT22;32137;48.728;9.142;2023-05-10T00:10:05;13.80;1.00
46438;DHT22;32137;48.728;9.142;2023-05-10T00:12:30;13.70;1.00
46438;DHT22;32137;48.728;9.142;2023-05-10T00:14:56;13.60;1.00
46438;DHT22;32137;48.728;9.142;2023-05-10T00:17:21;13.50;1.00
46438;DHT22;32137;48.728;9.142;2023-05-10T00:19:47;13.50;1.00
46438;DHT22;32137;48.728;9.142;2023-05-10T00:22:13;13.40;1.00
46438;DHT22;32137;48.728;9.142;2023-05-10T00:24:38;13.30;1.00
46438;DHT22;32137;48.728;9.142;2023-05-10T00:27:04;13.30;1.00
46438;DHT22;32137;48.728;9.142;2023-05-10T00:29:30;13.30;1.00
46438;DHT22;32137;48.728;9.142;2023-05-10T00:31:55;13.30;1.00
46438;DHT22;32137;48.728;9.142;2023-05-10T00:34:21;13.30;1.00
46438;DHT22;32137;48.728;9.142;2023-05-10T00:36:47;13.30;1.00
46438;DHT22;32137;48.728;9.142;2023-05-10T00:39:12;13.30;1.00
46438;DHT22;32137;48.728;9.142;2023-05-10T00:41:38;13.30;1.00
46438;DHT22;32137;48.728;9.142;2023-05-10T00:44:04;13.30;1.00
46438;DHT22;32137;48.728;9.142;2023-05-10T00:46:29;13.20;1.00
46438;DHT22;32137;48.728;9.142;2023-05-10T00:48:55;13.10;1.00
46438;DHT22;32137;48.728;9.142;2023-05-10T00:51:21;13.00;1.00
46438;DHT22;32137;48.728;9.142;2023-05-10T00:53:47;13.00;1.00
46438;DHT22;32137;48.728;9.142;2023-05-10T00:56:13;13.10;1.00
46438;DHT22;32137;48.728;9.142;2023-05-10T00:58:39;13.00;1.00
46438;DHT22;32137;48.728;9.142;2023-05-10T01:01:06;13.00;1.00
46438;DHT22;32137;48.728;9.142;2023-05-10T01:03:33;12.90;1.00
46438;DHT22;32137;48.728;9.142;2023-05-10T01:05:58;12.80;1.00
46438;DHT22;32137;48.728;9.142;2023-05-10T01:08:25;13.00;1.00
46438;DHT22;32137;48.728;9.142;2023-05-10T01:10:51;12.90;1.00
46438;DHT22;32137;48.728;9.142;2023-05-10T01:13:45;12.90;1.00
46438;DHT22;32137;48.728;9.142;2023-05-10T01:16:09;13.00;1.00
46438;DHT22;32137;48.728;9.142;2023-05-10T01:18:37;12.90;1.00
46438;DHT22;32137;48.728;9.142;2023-05-10T01:26:55;12.90;1.00
46438;DHT22;32137;48.728;9.142;2023-05-10T01:35:14;12.70;1.00
46438;DHT22;32137;48.728;9.142;2023-05-10T01:38:04;12.70;1.00
46438;DHT22;32137;48.728;9.142;2023-05-10T01:40:36;12.60;1.00
46438;DHT22;32137;48.728;9.142;2023-05-10T01:43:05;12.60;1.00
46438;DHT22;32137;48.728;9.142;2023-05-10T01:45:48;12.70;1.00
46438;DHT22;32137;48.728;9.142;2023-05-10T01:48:16;12.70;1.00
46438;DHT22;32137;48.728;9.142;2023-05-10T01:50:45;12.70;1.00
46438;DHT22;32137;48.728;9.142;2023-05-10T01:53:12;12.60;1.00
46438;DHT22;32137;48.728;9.142;2023-05-10T01:55:48;12.60;1.00
46438;DHT22;32137;48.728;9.142;2023-05-10T01:58:33;12.60;1.00
46438;DHT22;32137;48.728;9.142;2023-05-10T02:01:03;12.60;1.00
46438;DHT22;32137;48.728;9.142;2023-05-10T02:03:31;12.60;1.00
46438;DHT22;32137;48.728;9.142;2023-05-10T02:05:57;12.50;1.00
46438;DHT22;32137;48.728;9.142;2023-05-10T02:08:24;12.50;1.00
46438;DHT22;32137;48.728;9.142;2023-05-10T02:10:52;12.60;1.00
46438;DHT22;32137;48.728;9.142;2023-05-10T02:13:19;12.60;1.00
46438;DHT22;32137;48.728;9.142;2023-05-10T02:15:48;12.60;1.00
46438;DHT22;32137;48.728;9.142;2023-05-10T02:18:14;12.60;1.00
46438;DHT22;32137;48.728;9.142;2023-05-10T02:20:42;12.60;1.00
46438;DHT22;32137;48.728;9.142;2023-05-10T02:23:09;12.60;1.00
46438;DHT22;32137;48.728;9.142;2023-05-10T02:25:35;12.60;1.00
46438;DHT22;32137;48.728;9.142;2023-05-10T02:28:03;12.60;1.00
46438;DHT22;32137;48.728;9.142;2023-05-10T02:30:31;12.60;1.00
46438;DHT22;32137;48.728;9.142;2023-05-10T02:32:58;12.60;1.00
46438;DHT22;32137;48.728;9.142;2023-05-10T02:35:25;12.50;1.00
46438;DHT22;32137;48.728;9.142;2023-05-10T02:37:52;12.50;1.00
46438;DHT22;32137;48.728;9.142;2023-05-10T02:40:19;12.50;1.00
46438;DHT22;32137;48.728;9.142;2023-05-10T02:42:47;12.60;1.00
46438;DHT22;32137;48.728;9.142;2023-05-10T02:45:18;12.60;1.00
46438;DHT22;32137;48.728;9.142;2023-05-10T02:47:44;12.60;1.00
46438;DHT22;32137;48.728;9.142;2023-05-10T02:50:10;12.50;1.00
46438;DHT22;32137;48.728;9.142;2023-05-10T02:52:40;12.60;1.00
46438;DHT22;32137;48.728;9.142;2023-05-10T02:55:09;12.50;1.00
46438;DHT22;32137;48.728;9.142;2023-05-10T02:57:38;12.50;1.00
46438;DHT22;32137;48.728;9.142;2023-05-10T03:00:06;12.40;99.90
46438;DHT22;32137;48.728;9.142;2023-05-10T03:02:32;12.40;1.00
46438;DHT22;32137;48.728;9.142;2023-05-10T03:04:58;12.30;1.00
46438;DHT22;32137;48.728;9.142;2023-05-10T03:07:23;12.30;1.00
46438;DHT22;32137;48.728;9.142;2023-05-10T03:09:49;12.30;1.00
46438;DHT22;32137;48.728;9.142;2023-05-10T03:15:22;12.40;1.00
46438;DHT22;32137;48.728;9.142;2023-05-10T03:18:09;12.40;1.00
46438;DHT22;32137;48.728;9.142;2023-05-10T03:20:41;12.40;1.00
46438;DHT22;32137;48.728;9.142;2023-05-10T03:25:58;12.40;1.00
46438;DHT22;32137;48.728;9.142;2023-05-10T03:28:26;12.50;1.00
46438;DHT22;32137;48.728;9.142;2023-05-10T03:30:53;12.40;99.90
46438;DHT22;32137;48.728;9.142;2023-05-10T03:33:19;12.30;99.90
46438;DHT22;32137;48.728;9.142;2023-05-10T03:35:45;12.30;99.90
46438;DHT22;32137;48.728;9.142;2023-05-10T03:38:12;12.30;99.90
46438;DHT22;32137;48.728;9.142;2023-05-10T03:40:37;12.30;99.90
46438;DHT22;32137;48.728;9.142;2023-05-10T03:43:03;12.30;99.90
46438;DHT22;32137;48.728;9.142;2023-05-10T03:45:29;12.30;1.00
46438;DHT22;32137;48.728;9.142;2023-05-10T03:47:57;12.30;1.00
46438;DHT22;32137;48.728;9.142;2023-05-10T03:50:22;12.20;1.00
46438;DHT22;32137;48.728;9.142;2023-05-10T03:52:48;12.30;1.00
46438;DHT22;32137;48.728;9.142;2023-05-10T03:55:13;12.30;1.00
46438;DHT22;32137;48.728;9.142;2023-05-10T03:57:39;12.30;1.00
46438;DHT22;32137;48.728;9.142;2023-05-10T04:00:05;12.30;99.90
46438;DHT22;32137;48.728;9.142;2023-05-10T04:02:31;12.20;1.00
46438;DHT22;32137;48.728;9.142;2023-05-10T04:04:56;12.20;1.00
46438;DHT22;32137;48.728;9.142;2023-05-10T04:07:22;12.20;1.00
46438;DHT22;32137;48.728;9.142;2023-05-10T04:09:47;12.30;20.70
46438;DHT22;32137;48.728;9.142;2023-05-10T04:12:13;12.20;38.90
46438;DHT22;32137;48.728;9.142;2023-05-10T04:14:38;12.30;43.60
46438;DHT22;32137;48.728;9.142;2023-05-10T04:17:04;12.20;56.50
46438;DHT22;32137;48.728;9.142;2023-05-10T04:19:31;12.20;48.80
46438;DHT22;32137;48.728;9.142;2023-05-10T04:21:56;12.10;71.30
46438;DHT22;32137;48.728;9.142;2023-05-10T04:24:23;12.10;81.60
46438;DHT22;32137;48.728;9.142;2023-05-10T04:26:48;12.10;94.20
46438;DHT22;32137;48.728;9.142;2023-05-10T04:29:14;12.10;87.20
46438;DHT22;32137;48.728;9.142;2023-05-10T04:31:39;12.00;65.30
46438;DHT22;32137;48.728;9.142;2023-05-10T04:34:05;12.00;38.50
46438;DHT22;32137;48.728;9.142;2023-05-10T04:36:30;12.00;44.50
46438;DHT22;32137;48.728;9.142;2023-05-10T04:38:58;12.00;72.90
46438;DHT22;32137;48.728;9.142;2023-05-10T04:41:23;11.90;43.80
46438;DHT22;32137;48.728;9.142;2023-05-10T04:43:50;11.90;55.80
46438;DHT22;32137;48.728;9.142;2023-05-10T04:46:15;11.90;81.20
46438;DHT22;32137;48.728;9.142;2023-05-10T04:48:41;11.90;59.40
46438;DHT22;32137;48.728;9.142;2023-05-10T04:51:06;11.90;65.80
46438;DHT22;32137;48.728;9.142;2023-05-10T04:53:32;12.00;78.90
46438;DHT22;32137;48.728;9.142;2023-05-10T04:55:58;12.00;91.20
46438;DHT22;32137;48.728;9.142;2023-05-10T04:58:23;12.00;99.90
46438;DHT22;32137;48.728;9.142;2023-05-10T05:00:49;12.00;99.90
46438;DHT22;32137;48.728;9.142;2023-05-10T05:03:14;12.00;99.90
46438;DHT22;32137;48.728;9.142;2023-05-10T05:05:40;12.00;99.90
46438;DHT22;32137;48.728;9.142;2023-05-10T05:08:06;12.10;99.90
46438;DHT22;32137;48.728;9.142;2023-05-10T05:10:31;12.10;99.90
46438;DHT22;32137;48.728;9.142;2023-05-10T05:12:57;12.00;99.90
46438;DHT22;32137;48.728;9.142;2023-05-10T05:15:22;12.20;99.90
46438;DHT22;32137;48.728;9.142;2023-05-10T05:17:48;12.10;99.90
46438;DHT22;32137;48.728;9.142;2023-05-10T05:20:14;12.30;99.90
46438;DHT22;32137;48.728;9.142;2023-05-10T05:22:39;12.30;99.90
46438;DHT22;32137;48.728;9.142;2023-05-10T05:25:05;12.20;99.90
46438;DHT22;32137;48.728;9.142;2023-05-10T05:27:31;12.30;99.90
46438;DHT22;32137;48.728;9.142;2023-05-10T05:29:57;12.30;99.90
46438;DHT22;32137;48.728;9.142;2023-05-10T05:32:24;12.40;99.90
46438;DHT22;32137;48.728;9.142;2023-05-10T05:34:49;12.30;99.90
46438;DHT22;32137;48.728;9.142;2023-05-10T05:37:17;12.30;99.90
46438;DHT22;32137;48.728;9.142;2023-05-10T05:39:43;12.40;99.90
46438;DHT22;32137;48.728;9.142;2023-05-10T05:42:09;12.40;99.90
46438;DHT22;32137;48.728;9.142;2023-05-10T05:44:35;12.50;99.90
46438;DHT22;32137;48.728;9.142;2023-05-10T05:47:01;12.40;99.90
46438;DHT22;32137;48.728;9.142;2023-05-10T05:49:27;12.40;99.90
46438;DHT22;32137;48.728;9.142;2023-05-10T05:51:52;12.50;99.90
46438;DHT22;32137;48.728;9.142;2023-05-10T05:54:18;12.60;99.90
46438;DHT22;32137;48.728;9.142;2023-05-10T05:56:43;12.50;99.90
46438;DHT22;32137;48.728;9.142;2023-05-10T05:59:10;12.50;99.90
46438;DHT22;32137;48.728;9.142;2023-05-10T06:01:36;12.50;99.90
46438;DHT22;32137;48.728;9.142;2023-05-10T06:04:02;12.60;99.90
46438;DHT22;32137;48.728;9.142;2023-05-10T06:06:28;12.60;99.90
46438;DHT22;32137;48.728;9.142;2023-05-10T06:08:53;12.60;99.90
46438;DHT22;32137;48.728;9.142;2023-05-10T06:11:19;12.60;99.90
46438;DHT22;32137;48.728;9.142;2023-05-10T06:13:46;12.70;99.90
46438;DHT22;32137;48.728;9.142;2023-05-10T06:16:12;12.70;99.90
46438;DHT22;32137;48.728;9.142;2023-05-10T06:18:38;12.70;99.90
46438;DHT22;32137;48.728;9.142;2023-05-10T06:21:04;12.80;99.90
46438;DHT22;32137;48.728;9.142;2023-05-10T06:23:30;12.70;99.90
46438;DHT22;32137;48.728;9.142;2023-05-10T06:25:55;12.60;99.90
46438;DHT22;32137;48.728;9.142;2023-05-10T06:28:21;12.60;99.90
46438;DHT22;32137;48.728;9.142;2023-05-10T06:30:46;12.50;99.90
46438;DHT22;32137;48.728;9.142;2023-05-10T06:33:12;12.50;99.90
46438;DHT22;32137;48.728;9.142;2023-05-10T06:35:37;12.50;99.90
46438;DHT22;32137;48.728;9.142;2023-05-10T06:38:04;12.60;99.90
46438;DHT22;32137;48.728;9.142;2023-05-10T06:40:29;12.60;99.90
46438;DHT22;32137;48.728;9.142;2023-05-10T06:42:55;12.70;99.90
46438;DHT22;32137;48.728;9.142;2023-05-10T06:45:20;12.80;99.90
46438;DHT22;32137;48.728;9.142;2023-05-10T06:47:46;12.80;99.90
46438;DHT22;32137;48.728;9.142;2023-05-10T06:50:12;12.70;99.90
46438;DHT22;32137;48.728;9.142;2023-05-10T06:52:37;12.60;99.90
46438;DHT22;32137;48.728;9.142;2023-05-10T06:55:04;12.60;95.10
46438;DHT22;32137;48.728;9.142;2023-05-10T06:57:30;12.50;85.70
46438;DHT22;32137;48.728;9.142;2023-05-10T06:59:55;12.50;92.10
46438;DHT22;32137;48.728;9.142;2023-05-10T07:02:22;12.70;91.20
46438;DHT22;32137;48.728;9.142;2023-05-10T07:04:48;12.60;88.20
46438;DHT22;32137;48.728;9.142;2023-05-10T07:07:14;12.70;82.70
46438;DHT22;32137;48.728;9.142;2023-05-10T07:09:39;12.80;97.00
46438;DHT22;32137;48.728;9.142;2023-05-10T07:12:05;12.80;99.90
46438;DHT22;32137;48.728;9.142;2023-05-10T07:14:31;12.90;99.90
46438;DHT22;32137;48.728;9.142;2023-05-10T07:16:56;13.10;99.90
46438;DHT22;32137;48.728;9.142;2023-05-10T07:19:22;13.20;99.90
46438;DHT22;32137;48.728;9.142;2023-05-10T07:21:47;13.20;99.90
46438;DHT22;32137;48.728;9.142;2023-05-10T07:24:13;13.10;94.50
46438;DHT22;32137;48.728;9.142;2023-05-10T07:26:39;13.00;43.80
46438;DHT22;32137;48.728;9.142;2023-05-10T07:29:04;13.00;23.10
46438;DHT22;32137;48.728;9.142;2023-05-10T07:31:30;13.00;23.70
46438;DHT22;32137;48.728;9.142;2023-05-10T07:33:56;13.20;41.50
46438;DHT22;32137;48.728;9.142;2023-05-10T07:36:21;13.30;47.10
46438;DHT22;32137;48.728;9.142;2023-05-10T07:38:47;13.30;19.50
46438;DHT22;32137;48.728;9.142;2023-05-10T07:41:13;13.40;17.40
46438;DHT22;32137;48.728;9.142;2023-05-10T07:43:38;13.30;1.00
46438;DHT22;32137;48.728;9.142;2023-05-10T07:46:04;13.10;1.00
46438;DHT22;32137;48.728;9.142;2023-05-10T07:48:30;13.10;1.00
46438;DHT22;32137;48.728;9.142;2023-05-10T07:50:56;13.20;1.00
46438;DHT22;32137;48.728;9.142;2023-05-10T07:53:22;13.20;1.00
46438;DHT22;32137;48.728;9.142;2023-05-10T07:55:51;13.20;1.00
46438;DHT22;32137;48.728;9.142;2023-05-10T07:58:19;13.20;1.00
46438;DHT22;32137;48.728;9.142;2023-05-10T08:00:45;13.20;99.90
46438;DHT22;32137;48.728;9.142;2023-05-10T08:03:10;13.10;99.90
46438;DHT22;32137;48.728;9.142;2023-05-10T08:05:36;13.00;99.90
46438;DHT22;32137;48.728;9.142;2023-05-10T08:08:02;12.90;99.90
46438;DHT22;32137;48.728;9.142;2023-05-10T08:10:27;13.00;99.90
46438;DHT22;32137;48.728;9.142;2023-05-10T08:12:53;13.00;99.90
46438;DHT22;32137;48.728;9.142;2023-05-10T08:15:18;13.10;99.90
46438;DHT22;32137;48.728;9.142;2023-05-10T08:17:44;13.10;99.90
46438;DHT22;32137;48.728;9.142;2023-05-10T08:20:10;13.20;99.90
46438;DHT22;32137;48.728;9.142;2023-05-10T08:22:37;13.20;99.90
46438;DHT22;32137;48.728;9.142;2023-05-10T08:25:04;13.20;99.90
46438;DHT22;32137;48.728;9.142;2023-05-10T08:27:30;13.20;58.10
46438;DHT22;32137;48.728;9.142;2023-05-10T08:29:56;13.20;16.50
46438;DHT22;32137;48.728;9.142;2023-05-10T08:32:21;13.30;38.20
46438;DHT22;32137;48.728;9.142;2023-05-10T08:34:47;13.20;1.00
46438;DHT22;32137;48.728;9.142;2023-05-10T08:37:12;13.20;1.00
46438;DHT22;32137;48.728;9.142;2023-05-10T08:39:38;13.30;1.00
46438;DHT22;32137;48.728;9.142;2023-05-10T08:42:05;13.30;1.00
46438;DHT22;32137;48.728;9.142;2023-05-10T08:44:34;13.40;1.00
46438;DHT22;32137;48.728;9.142;2023-05-10T08:47:05;13.20;99.90
46438;DHT22;32137;48.728;9.142;2023-05-10T08:49:32;13.30;99.90
46438;DHT22;32137;48.728;9.142;2023-05-10T08:52:02;13.40;99.90
46438;DHT22;32137;48.728;9.142;2023-05-10T08:54:29;13.50;99.90
46438;DHT22;32137;48.728;9.142;2023-05-10T08:56:56;13.60;99.90
46438;DHT22;32137;48.728;9.142;2023-05-10T08:59:22;13.70;99.90
46438;DHT22;32137;48.728;9.142;2023-05-10T09:01:48;13.50;59.20
46438;DHT22;32137;48.728;9.142;2023-05-10T09:04:14;13.60;96.80
46438;DHT22;32137;48.728;9.142;2023-05-10T09:06:40;13.70;19.60
46438;DHT22;32137;48.728;9.142;2023-05-10T09:09:06;13.70;1.00
46438;DHT22;32137;48.728;9.142;2023-05-10T09:11:32;13.80;1.00
46438;DHT22;32137;48.728;9.142;2023-05-10T09:13:57;13.90;1.00
46438;DHT22;32137;48.728;9.142;2023-05-10T09:16:23;13.90;1.00
46438;DHT22;32137;48.728;9.142;2023-05-10T09:18:49;13.90;1.00
46438;DHT22;32137;48.728;9.142;2023-05-10T09:21:15;14.00;1.00
46438;DHT22;32137;48.728;9.142;2023-05-10T09:23:44;13.90;99.90
46438;DHT22;32137;48.728;9.142;2023-05-10T09:26:10;13.70;99.90
46438;DHT22;32137;48.728;9.142;2023-05-10T09:28:53;13.50;99.90
46438;DHT22;32137;48.728;9.142;2023-05-10T09:31:19;13.40;99.90
46438;DHT22;32137;48.728;9.142;2023-05-10T09:33:46;13.40;99.90
46438;DHT22;32137;48.728;9.142;2023-05-10T09:36:12;13.50;99.90
46438;DHT22;32137;48.728;9.142;2023-05-10T09:38:49;13.70;99.90
46438;DHT22;32137;48.728;9.142;2023-05-10T09:41:19;13.80;99.90
46438;DHT22;32137;48.728;9.142;2023-05-10T09:43:46;14.10;99.90
46438;DHT22;32137;48.728;9.142;2023-05-10T09:46:11;14.20;99.90
46438;DHT22;32137;48.728;9.142;2023-05-10T09:48:45;14.40;99.90
46438;DHT22;32137;48.728;9.142;2023-05-10T09:51:22;14.50;99.90
46438;DHT22;32137;48.728;9.142;2023-05-10T09:53:48;14.60;99.90
46438;DHT22;32137;48.728;9.142;2023-05-10T09:56:35;14.70;99.90
46438;DHT22;32137;48.728;9.142;2023-05-10T09:59:02;14.80;90.00
46438;DHT22;32137;48.728;9.142;2023-05-10T10:01:28;14.70;1.00
46438;DHT22;32137;48.728;9.142;2023-05-10T10:03:54;14.80;1.00
46438;DHT22;32137;48.728;9.142;2023-05-10T10:06:20;14.90;1.00
46438;DHT22;32137;48.728;9.142;2023-05-10T10:08:46;15.10;1.00
46438;DHT22;32137;48.728;9.142;2023-05-10T10:11:11;15.30;1.00
46438;DHT22;32137;48.728;9.142;2023-05-10T10:13:37;15.30;1.00
46438;DHT22;32137;48.728;9.142;2023-05-10T10:16:03;15.40;1.00
46438;DHT22;32137;48.728;9.142;2023-05-10T10:18:30;15.30;1.00
46438;DHT22;32137;48.728;9.142;2023-05-10T10:20:56;15.10;99.90
46438;DHT22;32137;48.728;9.142;2023-05-10T10:23:21;15.00;99.90
46438;DHT22;32137;48.728;9.142;2023-05-10T10:25:48;15.00;99.90
46438;DHT22;32137;48.728;9.142;2023-05-10T10:28:41;15.10;99.90
46438;DHT22;32137;48.728;9.142;2023-05-10T10:31:32;15.30;99.90
46438;DHT22;32137;48.728;9.142;2023-05-10T10:34:06;15.50;99.90
46438;DHT22;32137;48.728;9.142;2023-05-10T10:36:40;15.80;99.90
46438;DHT22;32137;48.728;9.142;2023-05-10T10:39:09;16.20;99.90
46438;DHT22;32137;48.728;9.142;2023-05-10T10:41:40;16.30;99.90
46438;DHT22;32137;48.728;9.142;2023-05-10T10:50:04;16.60;99.90
46438;DHT22;32137;48.728;9.142;2023-05-10T10:55:10;16.60;99.90
46438;DHT22;32137;48.728;9.142;2023-05-10T10:57:47;16.50;99.90
46438;DHT22;32137;48.728;9.142;2023-05-10T11:03:11;15.50;99.90
46438;DHT22;32137;48.728;9.142;2023-05-10T11:05:47;15.30;99.90
46438;DHT22;32137;48.728;9.142;2023-05-10T11:08:39;15.10;99.90
46438;DHT22;32137;48.728;9.142;2023-05-10T11:11:07;15.30;99.90
46438;DHT22;32137;48.728;9.142;2023-05-10T11:13:43;15.30;38.30
46438;DHT22;32137;48.728;9.142;2023-05-10T11:16:23;15.50;55.90
46438;DHT22;32137;48.728;9.142;2023-05-10T11:21:25;15.20;1.00
46438;DHT22;32137;48.728;9.142;2023-05-10T11:24:01;15.00;1.00
46438;DHT22;32137;48.728;9.142;2023-05-10T11:26:32;14.90;4.10
46438;DHT22;32137;48.728;9.142;2023-05-10T11:28:59;14.70;82.80
46438;DHT22;32137;48.728;9.142;2023-05-10T11:31:26;14.60;16.80
46438;DHT22;32137;48.728;9.142;2023-05-10T11:33:54;14.60;65.00
46438;DHT22;32137;48.728;9.142;2023-05-10T11:36:23;14.70;98.30
46438;DHT22;32137;48.728;9.142;2023-05-10T11:38:49;14.70;99.90
46438;DHT22;32137;48.728;9.142;2023-05-10T11:41:16;14.80;79.90
46438;DHT22;32137;48.728;9.142;2023-05-10T11:43:42;14.90;81.90
46438;DHT22;32137;48.728;9.142;2023-05-10T11:46:11;14.90;99.90
46438;DHT22;32137;48.728;9.142;2023-05-10T11:48:39;15.00;79.30
46438;DHT22;32137;48.728;9.142;2023-05-10T11:51:05;14.90;60.90
46438;DHT22;32137;48.728;9.142;2023-05-10T11:53:32;14.80;99.90
46438;DHT22;32137;48.728;9.142;2023-05-10T11:56:08;14.80;90.20
46438;DHT22;32137;48.728;9.142;2023-05-10T11:58:35;14.90;99.90
46438;DHT22;32137;48.728;9.142;2023-05-10T12:01:02;15.00;94.50
46438;DHT22;32137;48.728;9.142;2023-05-10T12:03:28;15.20;95.40
46438;DHT22;32137;48.728;9.142;2023-05-10T12:05:55;15.50;71.10
46438;DHT22;32137;48.728;9.142;2023-05-10T12:08:23;15.80;26.30
46438;DHT22;32137;48.728;9.142;2023-05-10T12:10:49;16.40;25.90
46438;DHT22;32137;48.728;9.142;2023-05-10T12:13:15;16.90;1.00
46438;DHT22;32137;48.728;9.142;2023-05-10T12:15:42;17.00;1.00
46438;DHT22;32137;48.728;9.142;2023-05-10T12:18:14;17.00;1.00
46438;DHT22;32137;48.728;9.142;2023-05-10T12:20:40;17.10;1.00
46438;DHT22;32137;48.728;9.142;2023-05-10T12:23:08;17.00;1.00
46438;DHT22;32137;48.728;9.142;2023-05-10T12:25:36;16.70;1.00
46438;DHT22;32137;48.728;9.142;2023-05-10T12:28:07;16.60;1.00
46438;DHT22;32137;48.728;9.142;2023-05-10T12:30:34;16.50;1.00
46438;DHT22;32137;48.728;9.142;2023-05-10T12:33:01;16.50;7.60
46438;DHT22;32137;48.728;9.142;2023-05-10T12:35:31;16.50;1.00
46438;DHT22;32137;48.728;9.142;2023-05-10T12:37:57;16.50;1.00
46438;DHT22;32137;48.728;9.142;2023-05-10T12:40:23;16.40;1.00
46438;DHT22;32137;48.728;9.142;2023-05-10T12:42:48;16.20;1.00
46438;DHT22;32137;48.728;9.142;2023-05-10T12:45:14;16.00;1.00
46438;DHT22;32137;48.728;9.142;2023-05-10T12:47:40;15.80;19.90
46438;DHT22;32137;48.728;9.142;2023-05-10T12:50:06;15.70;51.10
46438;DHT22;32137;48.728;9.142;2023-05-10T12:52:32;15.60;21.90
46438;DHT22;32137;48.728;9.142;2023-05-10T12:54:58;15.40;69.00
46438;DHT22;32137;48.728;9.142;2023-05-10T12:57:24;15.40;81.20
46438;DHT22;32137;48.728;9.142;2023-05-10T12:59:49;15.40;97.20
46438;DHT22;32137;48.728;9.142;2023-05-10T13:02:15;15.40;99.90
46438;DHT22;32137;48.728;9.142;2023-05-10T13:04:46;15.60;91.10
46438;DHT22;32137;48.728;9.142;2023-05-10T13:07:12;15.70;99.90
46438;DHT22;32137;48.728;9.142;2023-05-10T13:09:37;15.90;15.20
46438;DHT22;32137;48.728;9.142;2023-05-10T13:12:03;16.00;17.30
46438;DHT22;32137;48.728;9.142;2023-05-10T13:14:29;16.00;1.00
46438;DHT22;32137;48.728;9.142;2023-05-10T13:16:55;16.10;4.00
46438;DHT22;32137;48.728;9.142;2023-05-10T13:19:20;16.30;1.00
46438;DHT22;32137;48.728;9.142;2023-05-10T13:21:46;16.40;1.00
46438;DHT22;32137;48.728;9.142;2023-05-10T13:24:12;16.50;1.00
46438;DHT22;32137;48.728;9.142;2023-05-10T13:26:42;16.70;1.00
46438;DHT22;32137;48.728;9.142;2023-05-10T13:29:08;16.90;1.00
46438;DHT22;32137;48.728;9.142;2023-05-10T13:31:34;17.20;1.00
46438;DHT22;32137;48.728;9.142;2023-05-10T13:34:00;17.50;1.00
46438;DHT22;32137;48.728;9.142;2023-05-10T13:36:26;17.50;1.00
46438;DHT22;32137;48.728;9.142;2023-05-10T13:38:51;17.40;1.00
46438;DHT22;32137;48.728;9.142;2023-05-10T13:41:17;17.20;1.00
46438;DHT22;32137;48.728;9.142;2023-05-10T13:43:42;17.00;1.00
46438;DHT22;32137;48.728;9.142;2023-05-10T13:46:08;16.80;1.00
46438;DHT22;32137;48.728;9.142;2023-05-10T13:48:34;16.90;1.00
46438;DHT22;32137;48.728;9.142;2023-05-10T13:50:59;17.10;1.00
46438;DHT22;32137;48.728;9.142;2023-05-10T13:53:25;17.20;1.00
46438;DHT22;32137;48.728;9.142;2023-05-10T13:55:51;17.40;1.00
46438;DHT22;32137;48.728;9.142;2023-05-10T13:58:16;17.60;1.00
46438;DHT22;32137;48.728;9.142;2023-05-10T14:00:42;17.70;1.00
46438;DHT22;32137;48.728;9.142;2023-05-10T14:03:07;17.80;1.00
46438;DHT22;32137;48.728;9.142;2023-05-10T14:05:39;17.80;1.00
46438;DHT22;32137;48.728;9.142;2023-05-10T14:08:05;17.60;1.00
46438;DHT22;32137;48.728;9.142;2023-05-10T14:10:30;17.50;1.00
46438;DHT22;32137;48.728;9.142;2023-05-10T14:12:56;17.40;1.00
46438;DHT22;32137;48.728;9.142;2023-05-10T14:15:22;17.30;1.00
46438;DHT22;32137;48.728;9.142;2023-05-10T14:17:50;17.30;1.00
46438;DHT22;32137;48.728;9.142;2023-05-10T14:20:15;17.20;1.00
46438;DHT22;32137;48.728;9.142;2023-05-10T14:22:41;17.20;1.00
46438;DHT22;32137;48.728;9.142;2023-05-10T14:25:09;17.20;1.00
46438;DHT22;32137;48.728;9.142;2023-05-10T14:27:37;17.10;1.00
46438;DHT22;32137;48.728;9.142;2023-05-10T14:30:08;17.10;1.00
46438;DHT22;32137;48.728;9.142;2023-05-10T14:32:39;17.00;1.00
46438;DHT22;32137;48.728;9.142;2023-05-10T14:35:10;17.00;1.00
46438;DHT22;32137;48.728;9.142;2023-05-10T14:37:38;16.90;1.00
46438;DHT22;32137;48.728;9.142;2023-05-10T14:40:07;17.00;1.00
46438;DHT22;32137;48.728;9.142;2023-05-10T14:42:35;17.00;1.00
46438;DHT22;32137;48.728;9.142;2023-05-10T14:45:06;17.10;1.00
46438;DHT22;32137;48.728;9.142;2023-05-10T14:47:34;17.10;1.00
46438;DHT22;32137;48.728;9.142;2023-05-10T14:50:07;17.00;1.00
46438;DHT22;32137;48.728;9.142;2023-05-10T14:52:35;17.00;1.00
46438;DHT22;32137;48.728;9.142;2023-05-10T14:55:06;16.90;1.00
46438;DHT22;32137;48.728;9.142;2023-05-10T14:57:35;16.80;1.00
46438;DHT22;32137;48.728;9.142;2023-05-10T15:00:04;16.80;1.00
46438;DHT22;32137;48.728;9.142;2023-05-10T15:02:37;16.90;1.00
46438;DHT22;32137;48.728;9.142;2023-05-10T15:05:06;16.90;1.00
46438;DHT22;32137;48.728;9.142;2023-05-10T15:07:41;17.00;1.00
46438;DHT22;32137;48.728;9.142;2023-05-10T15:10:11;17.00;1.00
46438;DHT22;32137;48.728;9.142;2023-05-10T15:12:45;17.00;1.00
46438;DHT22;32137;48.728;9.142;2023-05-10T15:15:14;17.00;1.00
46438;DHT22;32137;48.728;9.142;2023-05-10T15:17:45;17.00;1.00
46438;DHT22;32137;48.728;9.142;2023-05-10T15:20:19;17.00;1.00
46438;DHT22;32137;48.728;9.142;2023-05-10T15:22:44;17.00;1.00
46438;DHT22;32137;48.728;9.142;2023-05-10T15:25:13;17.10;1.00
46438;DHT22;32137;48.728;9.142;2023-05-10T15:27:41;17.00;1.00
46438;DHT22;32137;48.728;9.142;2023-05-10T15:30:09;17.00;1.00
46438;DHT22;32137;48.728;9.142;2023-05-10T15:32:35;17.00;1.00
46438;DHT22;32137;48.728;9.142;2023-05-10T15:35:00;17.00;1.00
46438;DHT22;32137;48.728;9.142;2023-05-10T15:37:26;17.10;1.00
46438;DHT22;32137;48.728;9.142;2023-05-10T15:39:52;17.10;1.00
46438;DHT22;32137;48.728;9.142;2023-05-10T15:42:18;17.10;1.00
46438;DHT22;32137;48.728;9.142;2023-05-10T15:44:43;17.00;1.00
46438;DHT22;32137;48.728;9.142;2023-05-10T15:47:09;17.00;1.00
46438;DHT22;32137;48.728;9.142;2023-05-10T15:49:35;16.90;1.00
46438;DHT22;32137;48.728;9.142;2023-05-10T15:52:01;16.90;1.00
46438;DHT22;32137;48.728;9.142;2023-05-10T15:54:26;16.90;1.00
46438;DHT22;32137;48.728;9.142;2023-05-10T15:56:52;17.00;1.00
46438;DHT22;32137;48.728;9.142;2023-05-10T15:59:19;17.00;1.00
46438;DHT22;32137;48.728;9.142;2023-05-10T16:01:44;16.90;1.00
46438;DHT22;32137;48.728;9.142;2023-05-10T16:04:10;16.90;1.00
46438;DHT22;32137;48.728;9.142;2023-05-10T16:06:35;16.90;1.00
46438;DHT22;32137;48.728;9.142;2023-05-10T16:09:02;16.90;1.00
46438;DHT22;32137;48.728;9.142;2023-05-10T16:11:27;16.90;1.00